Terminal Aerodrome Forecast
Issued by NWS

Home | Current Version | Previous Version | Text Only | Print | Product List | Glossary On
Versions: 1 2 3 4 5 6 7 8 9 10 11 12
000
FTUS41 KBTV 241700
TAFSLK
TAF
KSLK 241725Z 2418/2518 32010G20KT P6SM SKC
     FM242300 30005KT P6SM SKC
     FM250200 00000KT P6SM SKC
     FM250800 00000KT P6SM SCT150
     FM251200 VRB03KT P6SM BKN100=

USA.gov is the U.S. government's official web portal to all federal, state and local government web resources and services.